This demonstration page uses our WeatherBlox Daily Observations layout. Learn more.

Left ArrowRight Arrow

41.55636, -103.73856

Hourly Observations for May 10, 2021

Temp ( °F °C ) Dew Point ( °F °C ) Humidity (%) Winds ( mph kmh ) Pressure ( in mb ) Visibility ( mi km ) Precip ( " mm )
12:58 am 00:58 Cloudy with Light Rain 38 3.6 36 2.4 92 92 E 5 7 30.13 1020 10 16.0934 0.01 0.254
1:58 am 01:58 Cloudy with Light Showers 39 4 37 2.5 90 90 N N/A 30.11 1020 10 16.0934 N/A
2:58 am 02:58 Cloudy with Light Showers 40 4.2 36 2.4 88 88 NE 3 6 30.11 1020 10 16.0934 N/A
3:58 am 03:58 Cloudy with Light Showers 40 4.7 36 2.1 83 83 E 8 13 30.09 1019 10 16.0934 N/A
4:58 am 04:58 Cloudy with Light Showers 40 4.5 36 2.4 86 86 ESE 3 6 30.11 1020 10 16.0934 0.01 0.254
5:58 am 05:58 Cloudy with Light Showers 39 3.8 37 2.7 93 93 ENE 7 11 30.12 1020 10 16.0934 N/A
6:58 am 06:58 Cloudy with Light Rain 39 3.7 37 2.8 94 94 E 9 15 30.18 1022 4 6.43736 0.03 0.762
7:58 am 07:58 Cloudy with Light Rain 38 3.3 36 2.1 92 92 ESE 14 22 30.19 1022 10 16.0934 0.06 1.524
8:58 am 08:58 Cloudy with Rain 37 2.7 35 1.6 93 93 SSE 12 19 30.21 1023 10 16.0934 0.06 1.524
9:58 am 09:58 Cloudy with Rain 37 2.9 35 1.7 92 92 ESE 13 20 30.21 1023 8 12.87472 0.07 1.778
10:58 am 10:58 Cloudy with Light Rain 37 2.9 35 1.8 93 93 SE 15 24 30.22 1023 10 16.0934 0.07 1.778
11:58 am 11:58 Cloudy with Light Rain 37 2.9 36 2 94 94 SE 10 17 30.21 1023 10 16.0934 0.06 1.524
12:58 pm 12:58 Cloudy with Light Rain 38 3.5 36 2 90 90 S 14 22 30.19 1022 10 16.0934 0.06 1.524
1:58 pm 13:58 Cloudy with Light Rain 38 3.6 35 1.8 88 88 SSE 15 24 30.2 1023 10 16.0934 0.04 1.016
2:58 pm 14:58 Cloudy with Light Rain 38 3.5 35 1.8 89 89 SSE 12 19 30.2 1023 10 16.0934 0.02 0.508
3:58 pm 15:58 Cloudy with Light Rain 37 2.8 35 1.6 92 92 SE 16 26 30.2 1023 10 16.0934 0.05 1.27
4:58 pm 16:58 Cloudy with Light Rain 37 2.9 35 1.9 93 93 SE 10 17 30.21 1023 10 16.0934 0.03 0.762
5:58 pm 17:58 Cloudy with Light Rain 37 2.7 35 1.6 93 93 SE 10 17 30.24 1024 10 16.0934 0.03 0.762
6:58 pm 18:58 Cloudy with Light Rain 37 2.6 35 1.7 94 94 SE 13 20 30.25 1025 10 16.0934 0.02 0.508
7:58 pm 19:58 Cloudy with Light Rain 36 2.4 35 1.7 95 95 SE 9 15 30.28 1026 10 16.0934 0.02 0.508
8:58 pm 20:58 Mostly Cloudy 36 2.4 35 1.6 95 95 SE 10 17 30.3 1026 10 16.0934 N/A
9:58 pm 21:58 Cloudy 37 2.6 35 1.9 95 95 SE 10 17 30.3 1026 10 16.0934 N/A
10:58 pm 22:58 Cloudy 37 2.6 35 1.8 95 95 SE 12 19 30.3 1026 10 16.0934 N/A
11:58 pm 23:58 Cloudy with Light Showers 37 2.5 35 1.7 95 95 SE 10 17 30.29 1026 10 16.0934 N/A

Powered by AerisWeather